Oostwold Airport

EHOW · Groningen, 荷兰

罗盘
风向 的 风向 040° Oostwold Airport 6/24
风: 5 kt, 2 beaufort

5 kt

2 kt
改变
0 ft 5.000 10.000 15.000 20.000
Cloud Cloud Cloud Cloud Cloud Cloud
BKN 10.000
Cloud Cloud Cloud Cloud Cloud Cloud
BKN 19.000
METAR EDWE 202050Z AUTO 04005KT 9999 // BKN100/// BKN190/// 14/11 Q1018

METAR Oostwold Airport - EHOW

Oostwold Airport是,荷兰中的小机场。 该机场位于纬度53,20885和经度7,03331。 该机场有一条跑道: 6/24. 本场的ICAO机场代码为EHOW。 机场在Bremen FIR中。

该航空气象观测是针对Emden Airport在2024年6月20日 22:50, 当地时间进行的。

机场观察

风向为040°,速度为5 kt。

可见度为10 km 或者更多。

有碎云在10.000 ft的高度 和 碎云在19.000 ft的高度。 破损或更高的上限为10.000 ft。

温度和风寒是14 °C。 露点为11 °C,相对湿度为82%。 海平面上的气压为1018 hPa (QNH)。

白天

今天,太阳从05:04升起,在22:02降落。 这适用于Oostwold Airport,世界夏令时可能有所不同。 当地时间与世界标准时间之间的时差为+2 小时。 夏令时目前正在进行中。

公司介绍

在这个机场,你可以找到跳伞中心。 这个机场上的公司有Vliegbedrijf Tom van der Meulen 和 Skydive Blauwestad。

体会

到Vliegles.nl去找飞行课程,跳伞和其他飞行体验。 浏览页面,了解Oostwold Airport附近所有可用的活动。 你也可以使用搜索功能来寻找你所在地附近的特定飞行课程、跳伞或其他飞行体验。

跑道

Id 标题 侧风 逆风 侧风 %
6/24 065°-245° 2 kt 5 kt 42 %

逆风成分最大的方向会被突出显示,并用于横风计算。 这并不一定意味着这个方向在使用。

乌云

10.000 ft BKN 碎云
19.000 ft BKN 碎云

温度 & 天气

温度 14 °C
露点 11 °C
相对湿度 82%
Kp-index 0 (0-9)

白天

日出
05:02 (5:36)
中午
13:32
日落
22:03

小工具

你想在你的网站上有一个关于Oostwold Airport的当前航空天气(METAR)的小部件吗?

显示HTML代码
报告变更